Time;durP1;ratioP1;P1;durP2;ratioP2;P2;SDS_P1;SDS_P2;PMS_P1;PMS_P2;Temp;Humidity;BMP_temperature;BMP_pressure;BME280_temperature;BME280_humidity;BME280_pressure;Samples;Min_cycle;Max_cycle;Signal;HPM_P1;HPM_P2
2023/09/24 00:00:56;;;;;;;4.43;2.33;;;;;;;;;;6175572;28;20133;-87
2023/09/24 00:03:58;;;;;;;3.08;2.33;;;;;;;;;;6181085;28;20046;-86
2023/09/24 00:07:00;;;;;;;3.55;2.20;;;;;;;;;;6154371;28;20398;-87
2023/09/24 00:10:03;;;;;;;2.40;1.98;;;;;;;;;;6141675;28;20046;-87
2023/09/24 00:13:05;;;;;;;3.35;2.22;;;;;;;;;;6169485;28;20042;-86
2023/09/24 00:16:07;;;;;;;26.27;14.55;;;;;;;;;;6165311;28;20049;-87
2023/09/24 00:19:09;;;;;;;10.57;5.70;;;;;;;;;;6166003;28;20139;-87
2023/09/24 00:22:12;;;;;;;5.30;2.42;;;;;;;;;;6181476;28;20137;-87
2023/09/24 00:25:14;;;;;;;5.50;2.80;;;;;;;;;;6166776;28;20039;-87
2023/09/24 00:28:16;;;;;;;4.43;2.38;;;;;;;;;;6160925;28;20128;-86
2023/09/24 00:31:18;;;;;;;4.57;2.90;;;;;;;;;;6165710;28;20039;-86
2023/09/24 00:34:19;;;;;;;3.92;2.03;;;;;;;;;;6181895;28;20043;-86
2023/09/24 00:37:22;;;;;;;2.67;1.85;;;;;;;;;;6165034;28;20082;-88
2023/09/24 00:40:24;;;;;;;3.80;2.00;;;;;;;;;;6164696;28;20592;-87
2023/09/24 00:43:33;;;;;;;3.63;2.28;;;;;;;;;;6173756;28;20051;-86
2023/09/24 00:46:35;;;;;;;2.65;2.20;;;;;;;;;;6166136;28;20046;-87
2023/09/24 00:49:36;;;;;;;5.57;3.60;;;;;;;;;;6164960;28;20047;-87
2023/09/24 00:52:38;;;;;;;8.25;4.60;;;;;;;;;;6164191;28;20493;-89
2023/09/24 00:55:41;;;;;;;7.93;4.10;;;;;;;;;;6167006;28;20050;-86
2023/09/24 00:58:47;;;;;;;6.50;3.50;;;;;;;;;;6180401;28;20062;-87
2023/09/24 01:01:48;;;;;;;5.50;3.40;;;;;;;;;;6165577;28;20043;-87
2023/09/24 01:04:53;;;;;;;4.72;2.58;;;;;;;;;;6179984;28;20043;-87
2023/09/24 01:07:55;;;;;;;3.50;2.47;;;;;;;;;;6179750;28;20054;-86
2023/09/24 01:10:58;;;;;;;3.22;2.00;;;;;;;;;;6159925;28;20063;-88
2023/09/24 01:14:00;;;;;;;8.65;2.50;;;;;;;;;;6145986;28;20046;-86
2023/09/24 01:17:02;;;;;;;2.50;2.10;;;;;;;;;;6160061;28;20499;-87
2023/09/24 01:20:05;;;;;;;5.87;3.10;;;;;;;;;;6147695;28;20053;-87
2023/09/24 01:23:08;;;;;;;3.22;2.40;;;;;;;;;;6167261;28;20450;-87
2023/09/24 01:26:10;;;;;;;4.10;2.70;;;;;;;;;;6178720;28;20395;-87
2023/09/24 01:29:14;;;;;;;5.45;2.75;;;;;;;;;;6166707;28;20050;-88
2023/09/24 01:32:16;;;;;;;3.80;2.28;;;;;;;;;;6144162;28;20154;-88
2023/09/24 01:35:19;;;;;;;4.28;2.35;;;;;;;;;;6162742;28;20047;-87
2023/09/24 01:38:21;;;;;;;;;;;;;;;;;;6157254;28;20097;-87
2023/09/24 01:41:25;;;;;;;5.90;2.40;;;;;;;;;;6168849;28;19926;-86
2023/09/24 01:44:28;;;;;;;2.67;2.17;;;;;;;;;;6178733;28;20133;-87
2023/09/24 01:47:29;;;;;;;3.22;2.15;;;;;;;;;;6176675;28;20054;-86
2023/09/24 01:50:32;;;;;;;4.20;2.03;;;;;;;;;;6164208;28;20497;-87
2023/09/24 01:53:37;;;;;;;4.32;1.80;;;;;;;;;;6165548;28;20106;-86
2023/09/24 01:56:39;;;;;;;3.47;2.40;;;;;;;;;;6149872;28;20045;-86
2023/09/24 01:59:42;;;;;;;2.20;2.00;;;;;;;;;;6191207;28;20078;-91
2023/09/24 02:02:44;;;;;;;2.50;2.20;;;;;;;;;;6194246;28;20054;-87
2023/09/24 02:05:46;;;;;;;4.68;2.40;;;;;;;;;;6164875;28;20058;-86
2023/09/24 02:08:47;;;;;;;3.42;2.35;;;;;;;;;;6172238;28;20054;-87
2023/09/24 02:11:53;;;;;;;3.65;2.25;;;;;;;;;;6166324;28;20129;-87
2023/09/24 02:14:55;;;;;;;4.28;2.25;;;;;;;;;;6159597;28;20049;-88
2023/09/24 02:17:57;;;;;;;3.90;2.20;;;;;;;;;;6153703;28;20046;-88
2023/09/24 02:20:59;;;;;;;4.57;2.63;;;;;;;;;;6138064;28;20043;-86
2023/09/24 02:24:01;;;;;;;2.85;2.15;;;;;;;;;;6158369;28;20358;-87
2023/09/24 02:27:04;;;;;;;4.75;2.28;;;;;;;;;;6156763;28;20482;-87
2023/09/24 02:30:07;;;;;;;3.30;2.50;;;;;;;;;;6166722;28;20123;-86
2023/09/24 02:33:09;;;;;;;2.30;1.90;;;;;;;;;;6178479;28;20494;-87
2023/09/24 02:36:12;;;;;;;2.97;2.10;;;;;;;;;;6150368;28;20047;-87
2023/09/24 02:39:14;;;;;;;3.35;2.35;;;;;;;;;;6157600;28;20043;-86
2023/09/24 02:42:16;;;;;;;3.67;2.30;;;;;;;;;;6167840;28;20051;-87
2023/09/24 02:45:18;;;;;;;4.82;2.20;;;;;;;;;;6177430;28;20557;-87
2023/09/24 02:48:20;;;;;;;3.90;2.10;;;;;;;;;;6166926;28;20418;-87
2023/09/24 02:51:22;;;;;;;3.00;2.00;;;;;;;;;;6161315;28;20055;-87
2023/09/24 02:54:24;;;;;;;2.72;2.05;;;;;;;;;;6171135;28;20046;-87
2023/09/24 02:57:26;;;;;;;2.50;1.95;;;;;;;;;;6166782;28;20051;-87
2023/09/24 03:00:35;;;;;;;3.80;1.73;;;;;;;;;;6166425;28;20049;-87
2023/09/24 03:03:38;;;;;;;3.85;2.22;;;;;;;;;;6167330;28;20058;-86
2023/09/24 03:06:41;;;;;;;6.25;2.58;;;;;;;;;;6182065;28;20077;-87
2023/09/24 03:09:43;;;;;;;7.93;2.40;;;;;;;;;;6165352;28;20118;-89
2023/09/24 03:12:46;;;;;;;4.93;1.92;;;;;;;;;;6171309;28;20043;-87
2023/09/24 03:15:48;;;;;;;3.05;2.30;;;;;;;;;;6166018;28;20066;-87
2023/09/24 03:18:50;;;;;;;4.68;2.25;;;;;;;;;;6175288;28;20054;-87
2023/09/24 03:21:51;;;;;;;4.18;2.70;;;;;;;;;;6184797;28;20049;-87
2023/09/24 03:24:53;;;;;;;6.80;3.80;;;;;;;;;;6169896;28;20046;-87
2023/09/24 03:27:58;;;;;;;7.60;3.03;;;;;;;;;;6178463;28;20042;-88
2023/09/24 03:31:00;;;;;;;9.23;3.15;;;;;;;;;;6172387;28;20070;-88
2023/09/24 03:34:02;;;;;;;9.07;3.20;;;;;;;;;;6186211;28;20406;-87
2023/09/24 03:37:05;;;;;;;11.63;3.10;;;;;;;;;;6173841;28;20039;-88
2023/09/24 03:40:12;;;;;;;5.80;3.08;;;;;;;;;;6169002;28;20071;-89
2023/09/24 03:43:14;;;;;;;11.27;3.40;;;;;;;;;;6173130;28;20042;-89
2023/09/24 03:46:16;;;;;;;7.70;3.00;;;;;;;;;;6159688;28;20039;-87
2023/09/24 03:49:18;;;;;;;5.80;3.13;;;;;;;;;;6170955;28;20110;-89
2023/09/24 03:52:20;;;;;;;5.97;2.83;;;;;;;;;;6172987;28;20043;-90
2023/09/24 03:55:21;;;;;;;8.80;2.97;;;;;;;;;;6150775;28;20047;-89
2023/09/24 03:58:23;;;;;;;8.77;2.53;;;;;;;;;;6166980;28;20158;-88
2023/09/24 04:01:25;;;;;;;6.15;3.53;;;;;;;;;;6177190;28;20524;-89
2023/09/24 04:04:29;;;;;;;6.93;3.00;;;;;;;;;;6174127;28;20078;-88
2023/09/24 04:07:30;;;;;;;5.95;2.40;;;;;;;;;;6187032;28;20129;-88
2023/09/24 04:10:32;;;;;;;4.18;2.60;;;;;;;;;;6172067;28;20039;-88
2023/09/24 04:13:35;;;;;;;7.07;2.63;;;;;;;;;;6173226;28;20447;-87
2023/09/24 04:16:37;;;;;;;7.75;3.00;;;;;;;;;;6189230;28;20053;-84
2023/09/24 04:19:39;;;;;;;6.35;2.80;;;;;;;;;;6182648;28;20046;-84
2023/09/24 04:22:44;;;;;;;5.07;2.70;;;;;;;;;;6171240;28;20186;-85
2023/09/24 04:25:46;;;;;;;13.82;3.20;;;;;;;;;;6176606;28;20047;-84
2023/09/24 04:28:53;;;;;;;4.43;2.78;;;;;;;;;;6166668;28;20128;-85
2023/09/24 04:31:55;;;;;;;6.18;2.83;;;;;;;;;;6160605;28;20061;-82
2023/09/24 04:34:57;;;;;;;4.57;2.90;;;;;;;;;;6179822;28;20049;-86
2023/09/24 04:37:59;;;;;;;3.08;2.60;;;;;;;;;;6158053;28;20408;-85
2023/09/24 04:41:00;;;;;;;4.82;2.78;;;;;;;;;;6153118;28;20510;-84
2023/09/24 04:44:02;;;;;;;4.95;2.65;;;;;;;;;;6161892;28;20057;-85
2023/09/24 04:47:04;;;;;;;8.82;2.88;;;;;;;;;;6144444;28;20043;-83
2023/09/24 04:50:08;;;;;;;5.60;3.00;;;;;;;;;;6174402;28;20522;-84
2023/09/24 04:53:10;;;;;;;6.53;2.60;;;;;;;;;;6175783;28;20043;-85
2023/09/24 04:56:12;;;;;;;6.95;2.80;;;;;;;;;;6174750;28;20539;-85
2023/09/24 04:59:14;;;;;;;7.90;3.30;;;;;;;;;;6157647;28;20733;-85
2023/09/24 05:02:20;;;;;;;4.93;2.60;;;;;;;;;;6144471;28;20102;-84
2023/09/24 05:05:22;;;;;;;4.53;2.45;;;;;;;;;;6170054;28;20510;-83
2023/09/24 05:08:24;;;;;;;;;;;;;;;;;;6176139;28;20127;-85
2023/09/24 05:11:26;;;;;;;15.68;2.17;;;;;;;;;;6142263;28;19972;-85
2023/09/24 05:14:28;;;;;;;4.63;2.80;;;;;;;;;;6176072;28;20410;-82
2023/09/24 05:17:33;;;;;;;7.32;2.90;;;;;;;;;;6160039;28;20446;-82
2023/09/24 05:20:35;;;;;;;3.72;2.70;;;;;;;;;;6169266;28;20125;-82
2023/09/24 05:23:37;;;;;;;5.35;2.63;;;;;;;;;;6154906;28;20047;-82
2023/09/24 05:26:40;;;;;;;3.08;2.08;;;;;;;;;;6176017;28;20051;-83
2023/09/24 05:29:44;;;;;;;5.70;2.65;;;;;;;;;;6174922;28;20050;-82
2023/09/24 05:32:46;;;;;;;2.90;2.38;;;;;;;;;;6173654;28;20501;-81
2023/09/24 05:35:51;;;;;;;14.75;2.90;;;;;;;;;;6158803;28;20138;-82
2023/09/24 05:38:54;;;;;;;8.60;2.45;;;;;;;;;;6173507;28;20051;-84
2023/09/24 05:41:55;;;;;;;2.75;2.33;;;;;;;;;;6157692;28;20138;-83
2023/09/24 05:44:57;;;;;;;3.22;2.35;;;;;;;;;;6158684;28;20048;-82
2023/09/24 05:47:59;;;;;;;5.53;2.33;;;;;;;;;;6164900;28;20159;-81
2023/09/24 05:51:03;;;;;;;4.07;2.50;;;;;;;;;;6177055;28;20122;-83
2023/09/24 05:54:04;;;;;;;8.13;3.10;;;;;;;;;;6170985;28;20043;-83
2023/09/24 05:57:06;;;;;;;26.98;2.97;;;;;;;;;;6157017;28;20106;-83
2023/09/24 06:00:09;;;;;;;12.27;2.70;;;;;;;;;;6168340;28;20055;-84
2023/09/24 06:03:14;;;;;;;2.75;2.22;;;;;;;;;;6168236;28;20046;-83
2023/09/24 06:06:16;;;;;;;21.42;2.85;;;;;;;;;;6168637;28;20564;-83
2023/09/24 06:09:18;;;;;;;6.97;2.28;;;;;;;;;;6164278;28;20062;-82
2023/09/24 06:12:20;;;;;;;2.90;2.22;;;;;;;;;;6151234;28;20134;-81
2023/09/24 06:15:22;;;;;;;12.07;2.60;;;;;;;;;;6156333;28;20065;-82
2023/09/24 06:18:24;;;;;;;7.97;2.40;;;;;;;;;;6167285;28;20039;-81
2023/09/24 06:21:25;;;;;;;9.75;2.35;;;;;;;;;;6132323;28;20074;-83
2023/09/24 06:24:27;;;;;;;4.38;2.58;;;;;;;;;;6153457;28;20074;-82
2023/09/24 06:27:29;;;;;;;3.85;2.50;;;;;;;;;;6154158;28;20129;-82
2023/09/24 06:30:31;;;;;;;3.25;2.80;;;;;;;;;;6164237;28;20417;-82
2023/09/24 06:33:32;;;;;;;2.80;2.45;;;;;;;;;;6154114;28;20054;-82
2023/09/24 06:36:34;;;;;;;3.78;2.58;;;;;;;;;;6146972;28;20047;-81
2023/09/24 06:39:36;;;;;;;3.17;2.67;;;;;;;;;;6172692;28;20047;-83
2023/09/24 06:42:37;;;;;;;3.70;1.98;;;;;;;;;;6159349;28;20039;-82
2023/09/24 06:45:39;;;;;;;3.83;2.00;;;;;;;;;;6154758;28;20058;-83
2023/09/24 06:48:41;;;;;;;2.67;2.03;;;;;;;;;;6156029;28;20529;-82
2023/09/24 06:51:43;;;;;;;2.15;1.90;;;;;;;;;;6155640;28;20138;-84
2023/09/24 06:54:44;;;;;;;9.93;2.28;;;;;;;;;;6155364;28;20047;-83
2023/09/24 06:57:46;;;;;;;4.15;2.30;;;;;;;;;;6167541;28;20043;-83
2023/09/24 07:00:48;;;;;;;23.02;2.75;;;;;;;;;;6166162;28;20066;-82
2023/09/24 07:03:51;;;;;;;12.57;2.13;;;;;;;;;;6165539;28;20061;-82
2023/09/24 07:06:55;;;;;;;3.47;2.28;;;;;;;;;;6150245;28;20047;-81
2023/09/24 07:09:59;;;;;;;8.20;2.88;;;;;;;;;;6156010;28;20154;-83
2023/09/24 07:13:03;;;;;;;4.03;2.40;;;;;;;;;;6144693;28;20042;-86
2023/09/24 07:16:06;;;;;;;3.42;2.28;;;;;;;;;;6179012;28;20105;-84
2023/09/24 07:19:08;;;;;;;4.32;2.67;;;;;;;;;;6167933;28;20057;-85
2023/09/24 07:22:10;;;;;;;10.55;3.00;;;;;;;;;;6173066;28;20066;-86
2023/09/24 07:25:11;;;;;;;4.65;2.65;;;;;;;;;;6176880;28;20054;-86
2023/09/24 07:28:13;;;;;;;23.50;3.50;;;;;;;;;;6182440;28;20042;-84
2023/09/24 07:31:19;;;;;;;3.92;3.08;;;;;;;;;;6147026;28;20053;-85
2023/09/24 07:34:21;;;;;;;14.93;3.17;;;;;;;;;;6169086;28;20117;-87
2023/09/24 07:37:22;;;;;;;4.80;2.95;;;;;;;;;;6183553;28;20047;-84
2023/09/24 07:40:24;;;;;;;3.80;2.50;;;;;;;;;;6159792;28;20039;-86
2023/09/24 07:43:26;;;;;;;5.85;3.05;;;;;;;;;;6171058;28;20045;-86
2023/09/24 07:46:28;;;;;;;7.47;2.75;;;;;;;;;;6163643;28;20053;-85
2023/09/24 07:49:30;;;;;;;27.88;3.45;;;;;;;;;;6163403;28;20039;-86
2023/09/24 07:52:31;;;;;;;4.10;3.15;;;;;;;;;;6147885;28;20051;-87
2023/09/24 07:55:33;;;;;;;4.10;3.13;;;;;;;;;;6158055;28;20047;-84
2023/09/24 07:58:36;;;;;;;4.32;3.22;;;;;;;;;;6153026;28;20047;-82
2023/09/24 08:01:38;;;;;;;;;;;;;;;;;;6168472;28;20051;-82
2023/09/24 08:04:39;;;;;;;5.38;2.63;;;;;;;;;;6160537;28;19930;-82
2023/09/24 08:07:41;;;;;;;3.33;2.90;;;;;;;;;;6174365;28;20054;-81
2023/09/24 08:10:44;;;;;;;4.50;2.97;;;;;;;;;;6167637;28;20082;-80
2023/09/24 08:13:46;;;;;;;3.80;2.70;;;;;;;;;;6153533;28;20058;-81
2023/09/24 08:16:52;;;;;;;4.85;3.22;;;;;;;;;;6168019;28;20055;-83
2023/09/24 08:19:54;;;;;;;4.23;2.97;;;;;;;;;;6166707;28;20743;-83
2023/09/24 08:22:56;;;;;;;4.38;3.20;;;;;;;;;;6167514;28;20050;-82
2023/09/24 08:25:59;;;;;;;4.65;2.80;;;;;;;;;;6154626;28;20081;-82
2023/09/24 08:29:05;;;;;;;3.38;2.83;;;;;;;;;;6170084;28;20051;-83
2023/09/24 08:32:07;;;;;;;4.65;2.80;;;;;;;;;;6152786;28;20047;-83
2023/09/24 08:35:09;;;;;;;3.70;3.05;;;;;;;;;;6172093;28;20513;-82
2023/09/24 08:38:13;;;;;;;3.25;2.70;;;;;;;;;;6176739;28;20054;-84
2023/09/24 08:41:15;;;;;;;4.82;2.90;;;;;;;;;;6161976;28;20074;-82
2023/09/24 08:44:17;;;;;;;5.13;2.60;;;;;;;;;;6142327;28;20046;-81
2023/09/24 08:47:20;;;;;;;3.50;2.55;;;;;;;;;;6153722;28;20122;-80
2023/09/24 08:50:22;;;;;;;2.90;2.60;;;;;;;;;;6148704;28;20047;-81
2023/09/24 08:53:28;;;;;;;4.20;2.30;;;;;;;;;;6144554;28;20124;-81
2023/09/24 08:56:29;;;;;;;3.28;2.72;;;;;;;;;;6148440;28;20054;-81
2023/09/24 08:59:31;;;;;;;3.65;2.47;;;;;;;;;;6135021;28;20054;-81
2023/09/24 09:02:33;;;;;;;5.45;2.13;;;;;;;;;;6160044;28;20049;-81
2023/09/24 09:05:37;;;;;;;2.80;2.17;;;;;;;;;;6163032;28;20093;-81
2023/09/24 09:08:52;;;;;;;2.47;1.92;;;;;;;;;;6173155;28;20070;-80
2023/09/24 09:11:56;;;;;;;4.25;2.10;;;;;;;;;;6165642;28;20049;-82
2023/09/24 09:14:59;;;;;;;3.35;1.90;;;;;;;;;;6161718;28;20047;-83
2023/09/24 09:18:02;;;;;;;3.28;1.95;;;;;;;;;;6167487;28;20621;-83
2023/09/24 09:21:04;;;;;;;3.13;2.13;;;;;;;;;;6147264;28;20564;-84
2023/09/24 09:24:21;;;;;;;3.47;2.35;;;;;;;;;;6162762;28;20043;-82
2023/09/24 09:27:22;;;;;;;3.30;2.30;;;;;;;;;;6158358;28;20133;-82
2023/09/24 09:30:24;;;;;;;3.08;1.98;;;;;;;;;;6155059;28;20062;-83
2023/09/24 09:33:27;;;;;;;4.07;2.30;;;;;;;;;;6167164;28;20691;-85
2023/09/24 09:36:30;;;;;;;4.35;2.28;;;;;;;;;;6168756;28;20542;-84
2023/09/24 09:39:33;;;;;;;5.32;3.05;;;;;;;;;;6140040;28;20050;-84
2023/09/24 09:42:36;;;;;;;5.47;3.30;;;;;;;;;;6173312;28;20077;-84
2023/09/24 09:45:40;;;;;;;4.90;3.22;;;;;;;;;;6166534;28;20166;-83
2023/09/24 09:49:02;;;;;;;5.20;3.70;;;;;;;;;;6159086;28;20054;-84
2023/09/24 09:52:05;;;;;;;6.55;3.00;;;;;;;;;;6177872;28;20510;-85
2023/09/24 09:55:07;;;;;;;5.32;2.95;;;;;;;;;;6173201;28;20572;-86
2023/09/24 09:58:11;;;;;;;4.93;2.77;;;;;;;;;;6159384;28;20428;-85
2023/09/24 10:01:24;;;;;;;4.22;1.98;;;;;;;;;;6163312;28;20043;-86
2023/09/24 10:04:29;;;;;;;5.40;2.20;;;;;;;;;;6159864;28;20054;-86
2023/09/24 10:07:31;;;;;;;3.45;2.38;;;;;;;;;;6162362;28;20039;-88
2023/09/24 10:10:32;;;;;;;5.30;2.67;;;;;;;;;;6157890;28;20497;-87
2023/09/24 10:13:45;;;;;;;4.25;2.03;;;;;;;;;;6157706;28;20054;-84
2023/09/24 10:16:47;;;;;;;2.55;2.20;;;;;;;;;;6175211;28;20051;-83
2023/09/24 10:19:55;;;;;;;7.07;2.33;;;;;;;;;;6180602;28;20101;-86
2023/09/24 10:23:29;;;;;;;4.72;1.70;;;;;;;;;;6168612;28;20365;-86
2023/09/24 10:27:03;;;;;;;4.47;1.83;;;;;;;;;;6182971;28;20063;-82
2023/09/24 10:30:06;;;;;;;4.30;2.17;;;;;;;;;;6161844;28;20074;-85
2023/09/24 10:33:08;;;;;;;5.30;2.20;;;;;;;;;;6155613;28;20042;-86
2023/09/24 10:36:33;;;;;;;3.37;1.50;;;;;;;;;;6151315;28;20059;-85
2023/09/24 10:43:11;;;;;;;5.25;1.98;;;;;;;;;;6160975;28;20062;-85
2023/09/24 10:46:25;;;;;;;4.43;1.98;;;;;;;;;;6154829;28;20104;-85
2023/09/24 10:49:27;;;;;;;4.75;1.92;;;;;;;;;;6173750;28;20046;-86
2023/09/24 10:52:30;;;;;;;2.85;1.80;;;;;;;;;;6151827;28;20034;-82
2023/09/24 10:55:39;;;;;;;;;;;;;;;;;;6172844;28;20054;-84
2023/09/24 10:58:48;;;;;;;4.93;1.80;;;;;;;;;;6152983;28;19929;-86
2023/09/24 11:01:50;;;;;;;3.50;2.10;;;;;;;;;;6158861;28;20100;-86
2023/09/24 11:04:51;;;;;;;3.33;2.13;;;;;;;;;;6183608;28;20046;-86
2023/09/24 11:07:54;;;;;;;2.40;1.90;;;;;;;;;;6179199;28;20045;-84
2023/09/24 11:10:56;;;;;;;3.42;2.00;;;;;;;;;;6167639;28;20043;-85
2023/09/24 11:14:25;;;;;;;4.00;2.47;;;;;;;;;;6160502;28;20054;-86
2023/09/24 11:17:27;;;;;;;3.65;1.65;;;;;;;;;;6177485;28;20043;-87
2023/09/24 11:20:31;;;;;;;3.28;1.50;;;;;;;;;;6178294;28;20050;-87
2023/09/24 11:23:36;;;;;;;2.38;1.67;;;;;;;;;;6157934;28;20418;-87
2023/09/24 11:26:38;;;;;;;3.35;1.73;;;;;;;;;;6159414;28;20061;-84
2023/09/24 11:29:54;;;;;;;5.10;1.40;;;;;;;;;;6181576;28;20058;-85
2023/09/24 11:32:56;;;;;;;1.90;1.38;;;;;;;;;;6162758;28;20046;-85
2023/09/24 11:35:58;;;;;;;4.10;1.67;;;;;;;;;;6178620;28;20058;-84
2023/09/24 11:39:00;;;;;;;1.60;1.48;;;;;;;;;;6159780;28;20047;-84
2023/09/24 11:42:02;;;;;;;4.38;1.40;;;;;;;;;;6179153;28;20054;-84
2023/09/24 11:45:05;;;;;;;2.70;1.25;;;;;;;;;;6180516;28;20444;-84
2023/09/24 11:48:08;;;;;;;3.38;1.23;;;;;;;;;;6166315;28;20039;-84
2023/09/24 11:51:10;;;;;;;3.70;1.60;;;;;;;;;;6182502;28;20078;-83
2023/09/24 11:54:13;;;;;;;3.03;1.23;;;;;;;;;;6175521;28;20050;-83
2023/09/24 11:57:15;;;;;;;3.30;1.27;;;;;;;;;;6148957;28;20057;-82
2023/09/24 12:00:17;;;;;;;21.23;18.85;;;;;;;;;;6172790;28;20105;-81
2023/09/24 12:03:20;;;;;;;2.17;1.30;;;;;;;;;;6154902;28;20051;-81
2023/09/24 12:06:22;;;;;;;1.90;1.33;;;;;;;;;;6172859;28;20051;-80
2023/09/24 12:09:25;;;;;;;2.60;1.17;;;;;;;;;;6177315;28;20267;-81
2023/09/24 12:12:27;;;;;;;4.80;1.40;;;;;;;;;;6160184;28;20078;-83
2023/09/24 12:15:31;;;;;;;2.10;1.30;;;;;;;;;;6160142;28;20054;-82
2023/09/24 12:18:33;;;;;;;2.53;1.30;;;;;;;;;;6174137;28;20489;-82
2023/09/24 12:21:35;;;;;;;2.10;1.90;;;;;;;;;;6160054;28;20044;-82
2023/09/24 12:24:36;;;;;;;4.20;1.60;;;;;;;;;;6153486;28;20046;-82
2023/09/24 12:27:41;;;;;;;2.15;1.40;;;;;;;;;;6178580;28;20462;-81
2023/09/24 12:30:44;;;;;;;2.05;1.42;;;;;;;;;;6179699;28;20043;-83
2023/09/24 12:33:46;;;;;;;2.67;1.40;;;;;;;;;;6169099;28;20387;-84
2023/09/24 12:36:48;;;;;;;2.60;1.20;;;;;;;;;;6148673;28;20046;-83
2023/09/24 12:39:50;;;;;;;4.88;1.55;;;;;;;;;;6165552;28;20512;-83
2023/09/24 12:42:52;;;;;;;3.25;1.17;;;;;;;;;;6159032;28;20640;-84
2023/09/24 12:45:54;;;;;;;1.13;1.10;;;;;;;;;;6163432;28;20050;-83
2023/09/24 12:48:56;;;;;;;3.60;1.60;;;;;;;;;;6161702;28;20043;-83
2023/09/24 12:51:58;;;;;;;3.38;1.65;;;;;;;;;;6165384;28;20039;-82
2023/09/24 12:55:05;;;;;;;3.13;1.45;;;;;;;;;;6164680;28;20047;-82
2023/09/24 12:58:06;;;;;;;2.47;1.40;;;;;;;;;;6166686;28;20710;-83
2023/09/24 13:01:08;;;;;;;4.72;1.85;;;;;;;;;;6179063;28;20051;-84
2023/09/24 13:04:09;;;;;;;3.78;1.52;;;;;;;;;;6163502;28;20051;-83
2023/09/24 13:07:11;;;;;;;2.47;1.30;;;;;;;;;;6164404;28;20046;-83
2023/09/24 13:10:14;;;;;;;4.53;1.60;;;;;;;;;;6162404;28;20042;-83
2023/09/24 13:13:17;;;;;;;2.45;1.58;;;;;;;;;;6164190;28;20046;-83
2023/09/24 13:16:19;;;;;;;3.10;1.60;;;;;;;;;;6159721;28;20498;-82
2023/09/24 13:19:21;;;;;;;2.80;1.60;;;;;;;;;;6171756;28;20511;-83
2023/09/24 13:22:22;;;;;;;4.50;1.77;;;;;;;;;;6165204;28;20409;-81
2023/09/24 13:25:24;;;;;;;2.63;1.55;;;;;;;;;;6155550;28;20043;-84
2023/09/24 13:28:27;;;;;;;3.97;1.47;;;;;;;;;;6165410;28;20089;-81
2023/09/24 13:31:29;;;;;;;2.95;1.52;;;;;;;;;;6179510;28;20367;-82
2023/09/24 13:34:32;;;;;;;2.10;1.30;;;;;;;;;;6167983;28;20051;-84
2023/09/24 13:37:34;;;;;;;4.40;2.40;;;;;;;;;;6179771;28;20454;-84
2023/09/24 13:40:38;;;;;;;3.30;1.45;;;;;;;;;;6179640;28;20046;-83
2023/09/24 13:43:40;;;;;;;2.05;1.30;;;;;;;;;;6164920;28;20490;-85
2023/09/24 13:46:42;;;;;;;3.13;1.60;;;;;;;;;;6166294;28;20047;-88
2023/09/24 13:49:44;;;;;;;1.95;1.17;;;;;;;;;;6163763;28;20054;-83
2023/09/24 13:52:47;;;;;;;1.15;0.93;;;;;;;;;;6177632;28;20086;-82
2023/09/24 13:55:48;;;;;;;2.70;1.40;;;;;;;;;;6160717;28;20058;-83
2023/09/24 13:58:50;;;;;;;7.90;6.93;;;;;;;;;;6151242;28;20058;-82
2023/09/24 14:01:52;;;;;;;5.17;4.57;;;;;;;;;;6157545;28;20129;-84
2023/09/24 14:04:54;;;;;;;3.97;3.07;;;;;;;;;;6161391;28;20105;-86
2023/09/24 14:14:45;;;;;;;2.63;1.08;;;;;;;;;;6160390;28;20100;-85
2023/09/24 14:17:47;;;;;;;5.00;2.77;;;;;;;;;;6174343;28;20042;-85
2023/09/24 14:21:09;;;;;;;3.78;2.08;;;;;;;;;;6153423;28;20039;-84
2023/09/24 14:24:11;;;;;;;3.97;2.30;;;;;;;;;;6167096;28;20050;-85
2023/09/24 14:27:13;;;;;;;2.53;0.83;;;;;;;;;;6169787;28;20058;-84
2023/09/24 14:30:15;;;;;;;1.98;1.60;;;;;;;;;;6168365;28;20439;-85
2023/09/24 14:33:17;;;;;;;5.47;4.83;;;;;;;;;;6169341;28;20047;-85
2023/09/24 14:36:19;;;;;;;5.57;4.50;;;;;;;;;;6162317;28;20511;-87
2023/09/24 14:39:21;;;;;;;;;;;;;;;;;;6173846;28;20065;-84
2023/09/24 14:42:24;;;;;;;4.70;2.30;;;;;;;;;;6158213;28;19929;-86
2023/09/24 14:45:25;;;;;;;;;;;;;;;;;;6163536;28;20034;-84
2023/09/24 14:48:28;;;;;;;2.65;1.25;;;;;;;;;;6180530;28;19926;-84
2023/09/24 14:51:33;;;;;;;3.75;3.25;;;;;;;;;;6171873;28;20462;-84
2023/09/24 14:54:35;;;;;;;2.90;1.60;;;;;;;;;;6164719;28;20501;-84
2023/09/24 14:57:36;;;;;;;5.68;3.33;;;;;;;;;;6170219;28;20121;-84
2023/09/24 15:00:38;;;;;;;6.10;4.30;;;;;;;;;;6163163;28;20402;-86
2023/09/24 15:03:40;;;;;;;4.00;2.85;;;;;;;;;;6185668;28;20050;-87
2023/09/24 15:06:41;;;;;;;2.37;1.83;;;;;;;;;;6173243;28;20047;-85
2023/09/24 15:09:46;;;;;;;12.52;7.75;;;;;;;;;;6154943;28;20042;-87
2023/09/24 15:12:48;;;;;;;2.53;1.70;;;;;;;;;;6175803;28;20057;-85
2023/09/24 15:15:52;;;;;;;2.55;0.80;;;;;;;;;;6184657;28;20138;-85
2023/09/24 15:18:55;;;;;;;3.25;1.60;;;;;;;;;;6183769;28;20043;-84
2023/09/24 15:21:57;;;;;;;;;;;;;;;;;;6184753;28;20047;-86
2023/09/24 15:24:58;;;;;;;6.15;4.18;;;;;;;;;;6178681;28;19966;-84
2023/09/24 15:28:01;;;;;;;2.88;1.88;;;;;;;;;;6167491;28;20047;-85
2023/09/24 15:31:03;;;;;;;1.88;0.60;;;;;;;;;;6169796;28;20058;-87
2023/09/24 15:34:04;;;;;;;1.98;1.42;;;;;;;;;;6172620;28;20050;-89
2023/09/24 15:37:06;;;;;;;0.97;0.73;;;;;;;;;;6169056;28;20051;-85
2023/09/24 15:40:10;;;;;;;1.10;0.70;;;;;;;;;;6164577;28;20047;-86
2023/09/24 15:43:11;;;;;;;1.35;0.90;;;;;;;;;;6184817;28;20066;-88
2023/09/24 15:46:15;;;;;;;2.78;0.82;;;;;;;;;;6163943;28;20055;-85
2023/09/24 15:49:17;;;;;;;2.08;1.60;;;;;;;;;;6150021;28;20118;-85
2023/09/24 15:52:18;;;;;;;2.13;1.00;;;;;;;;;;6166129;28;20054;-84
2023/09/24 15:55:20;;;;;;;3.08;1.20;;;;;;;;;;6173359;28;20051;-86
2023/09/24 15:58:22;;;;;;;1.65;0.90;;;;;;;;;;6179281;28;20067;-85
2023/09/24 16:01:23;;;;;;;2.65;0.90;;;;;;;;;;6178387;28;20051;-83
2023/09/24 16:04:25;;;;;;;1.25;0.80;;;;;;;;;;6176894;28;20497;-85
2023/09/24 16:07:27;;;;;;;0.87;0.70;;;;;;;;;;6178763;28;20050;-87
2023/09/24 16:10:30;;;;;;;3.58;0.70;;;;;;;;;;6159301;28;20046;-85
2023/09/24 16:13:32;;;;;;;1.50;0.70;;;;;;;;;;6163257;28;20043;-85
2023/09/24 16:16:34;;;;;;;2.10;0.93;;;;;;;;;;6150220;28;20422;-86
2023/09/24 16:19:37;;;;;;;1.50;0.85;;;;;;;;;;6164526;28;20410;-86
2023/09/24 16:22:39;;;;;;;1.23;0.90;;;;;;;;;;6180273;28;20090;-84
2023/09/24 16:25:41;;;;;;;1.98;1.00;;;;;;;;;;6166297;28;20055;-86
2023/09/24 16:28:43;;;;;;;1.77;0.95;;;;;;;;;;6170134;28;20502;-85
2023/09/24 16:31:44;;;;;;;0.88;0.70;;;;;;;;;;6157329;28;20058;-84
2023/09/24 16:34:49;;;;;;;1.10;0.70;;;;;;;;;;6163922;28;20119;-84
2023/09/24 16:37:51;;;;;;;1.83;0.88;;;;;;;;;;6162668;28;20070;-83
2023/09/24 16:40:54;;;;;;;2.67;1.10;;;;;;;;;;6174506;28;20082;-83
2023/09/24 16:43:56;;;;;;;1.92;0.85;;;;;;;;;;6173308;28;20423;-80
2023/09/24 16:46:58;;;;;;;1.23;0.90;;;;;;;;;;6173729;28;20067;-80
2023/09/24 16:50:00;;;;;;;1.27;0.95;;;;;;;;;;6173906;28;20054;-81
2023/09/24 16:53:02;;;;;;;1.38;0.93;;;;;;;;;;6185579;28;20046;-82
2023/09/24 16:56:04;;;;;;;1.63;1.00;;;;;;;;;;6184122;28;20065;-82
2023/09/24 16:59:06;;;;;;;1.43;0.87;;;;;;;;;;6184049;28;20050;-84
2023/09/24 17:02:07;;;;;;;1.08;0.80;;;;;;;;;;6164923;28;20458;-81
2023/09/24 17:05:09;;;;;;;4.13;1.20;;;;;;;;;;6174523;28;20125;-81
2023/09/24 17:08:11;;;;;;;2.72;1.15;;;;;;;;;;6168512;28;20047;-82
2023/09/24 17:11:13;;;;;;;3.15;1.70;;;;;;;;;;6161402;28;20051;-81
2023/09/24 17:14:15;;;;;;;25.77;12.63;;;;;;;;;;6165018;28;20047;-80
2023/09/24 17:17:17;;;;;;;4.38;2.30;;;;;;;;;;6164342;28;20070;-82
2023/09/24 17:20:25;;;;;;;23.43;11.67;;;;;;;;;;6162139;28;20074;-84
2023/09/24 17:23:28;;;;;;;27.05;12.63;;;;;;;;;;6170795;28;21001;-81
2023/09/24 17:26:30;;;;;;;32.58;15.30;;;;;;;;;;6141135;28;20050;-83
2023/09/24 17:29:32;;;;;;;14.60;6.53;;;;;;;;;;6168941;28;20524;-82
2023/09/24 17:32:33;;;;;;;3.67;2.70;;;;;;;;;;6171599;28;20042;-81
2023/09/24 17:35:36;;;;;;;7.22;5.03;;;;;;;;;;6164887;28;20046;-82
2023/09/24 17:38:38;;;;;;;2.22;1.52;;;;;;;;;;6172845;28;20054;-82
2023/09/24 17:41:40;;;;;;;3.00;1.83;;;;;;;;;;6162303;28;20054;-81
2023/09/24 17:44:42;;;;;;;3.03;2.20;;;;;;;;;;6168906;28;20033;-79
2023/09/24 17:47:46;;;;;;;7.00;5.18;;;;;;;;;;6184298;28;20050;-80
2023/09/24 17:50:48;;;;;;;5.22;2.90;;;;;;;;;;6154559;28;20051;-81
2023/09/24 17:53:49;;;;;;;2.65;1.98;;;;;;;;;;6171998;28;20117;-80
2023/09/24 17:56:51;;;;;;;2.35;1.70;;;;;;;;;;6154757;28;20054;-80
2023/09/24 17:59:53;;;;;;;4.18;2.45;;;;;;;;;;6159536;28;20063;-80
2023/09/24 18:02:55;;;;;;;5.80;2.90;;;;;;;;;;6171594;28;20134;-81
2023/09/24 18:05:57;;;;;;;3.67;2.13;;;;;;;;;;6165581;28;20047;-82
2023/09/24 18:09:02;;;;;;;3.20;1.90;;;;;;;;;;6160593;28;20054;-81
2023/09/24 18:12:05;;;;;;;2.83;1.40;;;;;;;;;;6156511;28;20058;-81
2023/09/24 18:15:08;;;;;;;1.98;1.27;;;;;;;;;;6172997;28;20053;-81
2023/09/24 18:18:10;;;;;;;3.28;1.45;;;;;;;;;;6173197;28;20035;-82
2023/09/24 18:21:17;;;;;;;2.83;1.60;;;;;;;;;;6137403;28;20039;-82
2023/09/24 18:24:20;;;;;;;6.15;2.80;;;;;;;;;;6158799;28;20035;-82
2023/09/24 18:27:23;;;;;;;;;;;;;;;;;;6147163;28;20058;-80